Time;durP1;ratioP1;P1;durP2;ratioP2;P2;SDS_P1;SDS_P2;PMS_P1;PMS_P2;Temp;Humidity;BMP_temperature;BMP_pressure;BME280_temperature;BME280_humidity;BME280_pressure;Samples;Min_cycle;Max_cycle;Signal;HPM_P1;HPM_P2
2023/03/13 00:00:08;;;;;;;27.02;3.90;;;13.30;53.70;;;;;;4942394;28;20055;-56
2023/03/13 00:02:35;;;;;;;24.70;3.78;;;13.30;53.70;;;;;;4944186;28;20504;-57
2023/03/13 00:05:02;;;;;;;20.13;2.92;;;13.30;53.70;;;;;;4944012;28;20067;-56
2023/03/13 00:07:29;;;;;;;18.35;3.60;;;13.30;53.70;;;;;;4943896;28;20051;-60
2023/03/13 00:09:58;;;;;;;14.65;2.78;;;13.30;53.70;;;;;;4943988;28;20495;-57
2023/03/13 00:12:25;;;;;;;18.17;2.97;;;13.40;53.70;;;;;;4942560;28;20055;-57
2023/03/13 00:14:52;;;;;;;13.20;3.20;;;13.30;53.60;;;;;;4945136;28;20065;-57
2023/03/13 00:17:19;;;;;;;20.38;3.50;;;13.30;53.50;;;;;;4942770;28;20408;-56
2023/03/13 00:19:47;;;;;;;14.57;2.75;;;13.40;53.60;;;;;;4943861;28;20051;-56
2023/03/13 00:22:14;;;;;;;14.75;3.05;;;13.40;53.50;;;;;;4943925;28;20063;-55
2023/03/13 00:24:41;;;;;;;19.60;3.45;;;13.30;53.50;;;;;;4944663;28;20055;-56
2023/03/13 00:27:11;;;;;;;20.23;4.03;;;13.30;53.50;;;;;;4943640;28;20066;-55
2023/03/13 00:29:38;;;;;;;19.17;4.05;;;13.30;53.50;;;;;;4944005;28;20042;-57
2023/03/13 00:32:06;;;;;;;22.58;3.75;;;13.30;53.50;;;;;;4944387;28;21289;-58
2023/03/13 00:34:33;;;;;;;18.23;3.35;;;13.30;53.50;;;;;;4943570;28;20070;-58
2023/03/13 00:37:00;;;;;;;23.88;3.75;;;13.30;53.50;;;;;;4944814;28;20051;-57
2023/03/13 00:39:27;;;;;;;30.63;4.32;;;13.30;53.50;;;;;;4942876;28;20515;-57
2023/03/13 00:41:54;;;;;;;23.40;4.18;;;13.30;53.50;;;;;;4944136;28;20059;-56
2023/03/13 00:44:23;;;;;;;22.10;3.65;;;13.30;53.60;;;;;;4943774;28;20468;-56
2023/03/13 00:46:50;;;;;;;19.38;3.65;;;13.20;53.60;;;;;;4943023;28;20055;-59
2023/03/13 00:49:18;;;;;;;16.77;3.15;;;13.30;53.80;;;;;;4944996;28;20411;-57
2023/03/13 00:51:45;;;;;;;27.25;4.38;;;13.20;53.80;;;;;;4943419;28;20055;-58
2023/03/13 00:54:12;;;;;;;20.80;3.60;;;13.20;53.90;;;;;;4944102;28;20086;-56
2023/03/13 00:56:39;;;;;;;21.77;3.75;;;13.20;53.90;;;;;;4943712;28;21370;-57
2023/03/13 00:59:06;;;;;;;16.67;2.92;;;13.20;54.10;;;;;;4946302;28;20063;-56
2023/03/13 01:01:36;;;;;;;18.27;3.63;;;13.20;54.20;;;;;;4948777;28;20054;-56
2023/03/13 01:04:06;;;;;;;18.10;3.53;;;13.20;54.50;;;;;;4948077;28;20055;-57
2023/03/13 01:06:36;;;;;;;16.85;3.45;;;13.20;54.60;;;;;;4946805;28;20070;-56
2023/03/13 01:09:06;;;;;;;21.52;3.90;;;13.20;54.70;;;;;;4947981;28;20055;-58
2023/03/13 01:11:36;;;;;;;14.80;3.25;;;13.20;54.90;;;;;;4947057;28;20053;-59
2023/03/13 01:14:06;;;;;;;14.27;3.03;;;13.20;55.20;;;;;;4947692;28;20059;-59
2023/03/13 01:16:36;;;;;;;19.58;3.80;;;13.20;55.40;;;;;;4948634;28;20063;-59
2023/03/13 01:19:06;;;;;;;16.63;3.60;;;13.20;55.80;;;;;;4946534;28;20062;-58
2023/03/13 01:21:33;;;;;;;12.52;3.05;;;13.10;55.90;;;;;;4946960;28;20070;-55
2023/03/13 01:24:01;;;;;;;23.75;3.60;;;13.20;56.10;;;;;;4948164;28;20055;-57
2023/03/13 01:26:28;;;;;;;17.50;3.92;;;13.10;56.40;;;;;;4945745;28;20059;-58
2023/03/13 01:28:56;;;;;;;22.05;3.50;;;13.10;56.50;;;;;;4947527;28;20059;-58
2023/03/13 01:31:25;;;;;;;19.48;3.53;;;13.10;56.70;;;;;;4947176;28;20047;-56
2023/03/13 01:33:56;;;;;;;16.90;2.90;;;13.10;56.80;;;;;;4948211;28;20067;-58
2023/03/13 01:36:24;;;;;;;18.05;4.15;;;13.10;57.00;;;;;;4946439;28;20058;-56
2023/03/13 01:38:53;;;;;;;17.73;4.70;;;13.10;57.00;;;;;;4947396;28;20051;-57
2023/03/13 01:41:21;;;;;;;22.30;3.90;;;13.10;57.10;;;;;;4947590;28;20492;-58
2023/03/13 01:43:49;;;;;;;19.50;3.78;;;13.00;57.20;;;;;;4949829;28;20061;-59
2023/03/13 01:46:18;;;;;;;16.85;3.58;;;13.10;57.40;;;;;;4948422;28;20097;-56
2023/03/13 01:48:50;;;;;;;13.05;2.63;;;13.00;57.50;;;;;;4947983;28;20051;-56
2023/03/13 01:51:23;;;;;;;19.42;3.63;;;13.00;57.80;;;;;;4948740;28;20051;-59
2023/03/13 01:53:55;;;;;;;19.55;4.35;;;13.00;57.80;;;;;;4949355;28;20051;-58
2023/03/13 01:56:30;;;;;;;15.98;2.95;;;13.00;57.90;;;;;;4947024;28;20054;-57
2023/03/13 01:58:57;;;;;;;;;;;13.00;57.90;;;;;;4948722;28;20066;-59
2023/03/13 02:01:26;;;;;;;13.77;3.20;;;13.00;58.00;;;;;;4948932;28;19926;-60
2023/03/13 02:03:55;;;;;;;18.35;3.33;;;13.00;57.80;;;;;;4970947;23;20050;-88
2023/03/13 02:06:25;;;;;;;17.50;3.40;;;13.00;58.10;;;;;;4981147;28;20054;-87
2023/03/13 02:08:57;;;;;;;15.27;2.90;;;13.00;58.30;;;;;;4980761;28;20050;-89
2023/03/13 02:11:31;;;;;;;15.65;2.70;;;13.00;58.30;;;;;;4979130;28;20535;-90
2023/03/13 02:14:00;;;;;;;16.33;3.58;;;13.00;58.40;;;;;;4986713;28;20401;-88
2023/03/13 02:16:28;;;;;;;12.05;3.13;;;13.00;58.30;;;;;;4978030;28;20054;-88
2023/03/13 02:18:55;;;;;;;12.00;2.63;;;13.10;58.90;;;;;;4979850;28;20065;-90
2023/03/13 02:21:37;;;;;;;15.77;2.90;;;13.00;58.40;;;;;;4978501;28;20050;-88
2023/03/13 02:24:13;;;;;;;13.43;2.63;;;13.00;58.50;;;;;;4981734;28;20054;-90
2023/03/13 02:26:42;;;;;;;13.40;2.10;;;13.10;58.50;;;;;;4980134;28;20054;-88
2023/03/13 02:29:17;;;;;;;15.13;2.75;;;13.00;58.30;;;;;;4979487;28;20069;-87
2023/03/13 02:31:46;;;;;;;8.70;2.10;;;13.00;58.30;;;;;;4978735;28;20054;-87
2023/03/13 02:34:17;;;;;;;14.35;2.30;;;13.10;58.30;;;;;;4980536;28;20050;-88
2023/03/13 02:36:46;;;;;;;10.55;2.13;;;13.10;59.00;;;;;;4973967;28;20058;-88
2023/03/13 02:39:17;;;;;;;15.68;2.58;;;13.10;58.60;;;;;;4976201;28;20058;-88
2023/03/13 02:41:46;;;;;;;7.97;1.90;;;13.10;58.60;;;;;;4979349;28;20394;-88
2023/03/13 02:44:14;;;;;;;10.25;2.05;;;13.10;58.60;;;;;;4980480;28;20050;-90
2023/03/13 02:46:46;;;;;;;8.20;1.88;;;13.10;58.50;;;;;;4976607;28;20061;-89
2023/03/13 02:49:25;;;;;;;8.05;1.60;;;13.10;58.60;;;;;;4980631;28;20054;-89
2023/03/13 02:51:53;;;;;;;7.50;2.03;;;13.10;58.80;;;;;;4972588;28;20880;-87
2023/03/13 02:54:24;;;;;;;6.50;1.35;;;13.20;58.80;;;;;;4979898;28;20065;-88
2023/03/13 02:56:56;;;;;;;7.15;1.45;;;13.20;58.90;;;;;;4979577;28;20058;-88
2023/03/13 03:01:58;;;;;;;7.32;1.40;;;13.20;58.90;;;;;;4982058;28;20065;-88
2023/03/13 03:04:26;;;;;;;5.43;1.20;;;13.20;58.90;;;;;;4979636;28;20058;-89
2023/03/13 03:06:54;;;;;;;3.88;1.10;;;13.20;59.00;;;;;;4980578;28;20069;-90
2023/03/13 03:09:22;;;;;;;8.30;1.25;;;13.20;59.00;;;;;;4978409;28;20057;-90
2023/03/13 03:11:50;;;;;;;4.35;0.90;;;13.20;59.20;;;;;;4976738;28;20054;-88
2023/03/13 03:14:19;;;;;;;8.73;1.52;;;13.20;59.50;;;;;;4980406;28;21246;-88
2023/03/13 03:16:46;;;;;;;6.38;1.30;;;13.20;60.20;;;;;;4976920;28;20054;-89
2023/03/13 03:19:13;;;;;;;4.63;1.05;;;13.20;60.10;;;;;;4977796;28;20063;-89
2023/03/13 03:21:41;;;;;;;4.05;0.80;;;13.20;60.10;;;;;;4978473;28;20050;-89
2023/03/13 03:24:08;;;;;;;6.75;0.90;;;13.20;60.10;;;;;;4979008;28;20490;-88
2023/03/13 03:27:00;;;;;;;6.22;0.95;;;13.20;60.50;;;;;;4978252;28;21352;-88
2023/03/13 03:29:29;;;;;;;5.05;0.60;;;13.20;60.70;;;;;;4977702;28;20058;-88
2023/03/13 03:31:56;;;;;;;2.40;0.68;;;13.20;60.60;;;;;;4977384;28;20164;-89
2023/03/13 03:34:24;;;;;;;1.92;0.80;;;13.30;60.70;;;;;;4979038;28;20055;-88
2023/03/13 03:36:54;;;;;;;1.27;0.65;;;13.20;60.90;;;;;;4978482;28;20065;-92
2023/03/13 03:39:22;;;;;;;3.13;0.43;;;13.30;60.70;;;;;;4978518;28;20486;-91
2023/03/13 03:41:49;;;;;;;2.42;0.80;;;13.30;60.60;;;;;;4968049;28;20097;-89
2023/03/13 03:44:16;;;;;;;4.60;0.52;;;13.30;60.90;;;;;;4978357;28;20050;-93
2023/03/13 03:46:45;;;;;;;2.75;0.47;;;13.30;60.90;;;;;;4978972;28;20073;-93
2023/03/13 03:49:12;;;;;;;0.60;0.28;;;13.30;60.90;;;;;;4977851;28;20057;-91
2023/03/13 03:51:39;;;;;;;2.58;0.40;;;13.40;61.20;;;;;;4975311;28;20406;-90
2023/03/13 03:54:07;;;;;;;1.63;0.38;;;13.40;61.00;;;;;;4978833;28;20081;-87
2023/03/13 03:56:35;;;;;;;1.85;0.30;;;13.40;61.00;;;;;;4973871;28;20062;-86
2023/03/13 03:59:02;;;;;;;0.80;0.30;;;13.40;61.00;;;;;;4978708;28;20050;-86
2023/03/13 04:01:29;;;;;;;2.05;0.40;;;13.40;61.00;;;;;;4977865;28;20046;-86
2023/03/13 04:03:58;;;;;;;1.92;0.50;;;13.40;60.90;;;;;;4979292;28;20497;-86
2023/03/13 04:06:25;;;;;;;2.25;0.45;;;13.50;61.10;;;;;;4978321;28;20061;-89
2023/03/13 04:08:54;;;;;;;2.63;0.30;;;13.50;61.00;;;;;;4979903;28;20853;-86
2023/03/13 04:11:21;;;;;;;1.23;0.35;;;13.50;60.90;;;;;;4977922;28;20054;-89
2023/03/13 04:13:48;;;;;;;0.40;0.30;;;13.50;60.90;;;;;;4979113;28;20051;-89
2023/03/13 04:16:16;;;;;;;1.38;0.20;;;13.50;60.80;;;;;;4973488;28;20077;-87
2023/03/13 04:18:43;;;;;;;0.77;0.20;;;13.50;60.60;;;;;;4977065;28;21371;-88
2023/03/13 04:21:11;;;;;;;1.80;0.22;;;13.60;60.90;;;;;;4976465;28;20494;-88
2023/03/13 04:23:39;;;;;;;0.65;0.20;;;13.60;60.80;;;;;;4980241;28;20053;-87
2023/03/13 04:26:06;;;;;;;1.10;0.40;;;13.60;60.80;;;;;;4976763;28;20065;-87
2023/03/13 04:28:33;;;;;;;1.98;0.22;;;13.60;60.80;;;;;;4978211;28;20418;-87
2023/03/13 04:31:01;;;;;;;0.30;0.13;;;13.70;60.70;;;;;;4978552;28;20538;-87
2023/03/13 04:33:29;;;;;;;0.20;0.20;;;13.70;60.50;;;;;;4981313;28;20058;-87
2023/03/13 04:35:56;;;;;;;0.75;0.17;;;13.70;60.50;;;;;;4980935;28;20619;-86
2023/03/13 04:38:26;;;;;;;14.40;6.07;;;13.70;60.60;;;;;;4982761;28;20134;-87
2023/03/13 04:40:53;;;;;;;1.55;1.08;;;13.70;60.80;;;;;;4980392;28;20057;-87
2023/03/13 04:43:20;;;;;;;0.50;0.32;;;13.80;60.80;;;;;;4981062;28;20054;-86
2023/03/13 04:45:48;;;;;;;0.63;0.30;;;13.80;60.70;;;;;;4977885;28;20144;-87
2023/03/13 04:48:16;;;;;;;0.77;0.45;;;13.80;60.50;;;;;;4983789;28;20640;-86
2023/03/13 04:50:43;;;;;;;0.20;0.20;;;13.80;60.40;;;;;;4981497;28;21127;-87
2023/03/13 04:53:10;;;;;;;0.95;0.10;;;13.90;60.50;;;;;;4984990;28;20058;-87
2023/03/13 04:55:39;;;;;;;0.55;0.15;;;13.90;60.50;;;;;;4979102;28;20486;-88
2023/03/13 04:58:06;;;;;;;0.60;0.20;;;13.90;60.50;;;;;;4975941;28;20069;-90
2023/03/13 05:00:33;;;;;;;0.47;0.30;;;13.90;60.30;;;;;;4977522;28;20058;-87
2023/03/13 05:03:01;;;;;;;7.25;2.90;;;14.00;60.30;;;;;;4980759;28;20490;-89
2023/03/13 05:05:28;;;;;;;5.13;2.47;;;14.00;60.50;;;;;;4976177;28;20934;-87
2023/03/13 05:07:55;;;;;;;0.85;0.73;;;14.00;60.60;;;;;;4977826;28;20062;-87
2023/03/13 05:10:22;;;;;;;1.25;0.20;;;14.00;60.70;;;;;;4977604;28;20065;-86
2023/03/13 05:12:51;;;;;;;1.75;0.50;;;14.00;60.60;;;;;;4980850;28;21156;-86
2023/03/13 05:15:18;;;;;;;0.40;0.10;;;14.10;60.50;;;;;;4982161;28;20065;-86
2023/03/13 05:17:45;;;;;;;0.10;0.10;;;14.10;60.40;;;;;;4973567;28;20501;-87
2023/03/13 05:20:13;;;;;;;0.22;0.20;;;14.10;60.30;;;;;;4976314;28;20058;-86
2023/03/13 05:22:40;;;;;;;0.55;0.20;;;14.10;60.30;;;;;;4977154;28;20050;-89
2023/03/13 05:25:08;;;;;;;0.52;0.30;;;14.20;60.20;;;;;;4976764;28;20061;-87
2023/03/13 05:27:35;;;;;;;0.43;0.35;;;14.20;60.30;;;;;;4975363;28;20054;-87
2023/03/13 05:30:04;;;;;;;11.18;5.25;;;14.20;60.30;;;;;;4979100;28;20065;-86
2023/03/13 05:32:32;;;;;;;3.53;1.50;;;14.20;60.20;;;;;;4979026;28;21620;-88
2023/03/13 05:34:59;;;;;;;0.43;0.40;;;14.20;60.00;;;;;;4975988;28;20399;-90
2023/03/13 05:37:26;;;;;;;0.47;0.30;;;14.20;59.90;;;;;;4974715;28;20058;-87
2023/03/13 05:39:53;;;;;;;0.50;0.20;;;14.30;59.90;;;;;;4980166;28;20517;-86
2023/03/13 05:42:20;;;;;;;0.20;0.20;;;14.30;60.40;;;;;;4980969;28;20046;-87
2023/03/13 05:44:48;;;;;;;0.30;0.20;;;14.30;60.20;;;;;;4978826;28;20053;-87
2023/03/13 05:47:17;;;;;;;0.40;0.13;;;14.30;60.00;;;;;;4980822;28;20413;-90
2023/03/13 05:49:45;;;;;;;0.10;0.10;;;14.30;60.00;;;;;;4967196;28;20046;-88
2023/03/13 05:52:12;;;;;;;0.35;0.22;;;14.30;59.90;;;;;;4983193;28;20379;-87
2023/03/13 05:54:39;;;;;;;0.32;0.13;;;14.30;59.90;;;;;;4973361;28;20057;-87
2023/03/13 05:57:06;;;;;;;0.57;0.20;;;14.30;59.90;;;;;;4980126;28;20691;-87
2023/03/13 05:59:33;;;;;;;0.55;0.20;;;14.30;59.80;;;;;;4978033;28;20049;-87
2023/03/13 06:02:01;;;;;;;0.45;0.20;;;14.30;59.80;;;;;;4981461;28;20063;-87
2023/03/13 06:04:29;;;;;;;0.22;0.10;;;14.40;59.90;;;;;;4977858;28;20054;-88
2023/03/13 06:06:56;;;;;;;0.10;0.10;;;14.40;60.00;;;;;;4978301;28;20433;-86
2023/03/13 06:09:24;;;;;;;0.43;0.20;;;14.40;60.10;;;;;;4979589;28;20054;-86
2023/03/13 06:11:51;;;;;;;0.32;0.10;;;14.40;60.10;;;;;;4978546;28;20050;-86
2023/03/13 06:14:18;;;;;;;4.90;2.13;;;14.40;60.10;;;;;;4975918;28;20065;-87
2023/03/13 06:16:45;;;;;;;2.17;0.80;;;14.50;60.10;;;;;;4980278;28;20050;-87
2023/03/13 06:19:13;;;;;;;0.90;0.50;;;14.40;60.00;;;;;;4985506;28;20438;-90
2023/03/13 06:21:42;;;;;;;0.80;0.40;;;14.50;60.30;;;;;;4986371;28;20050;-88
2023/03/13 06:24:09;;;;;;;1.67;0.28;;;14.50;60.10;;;;;;4979380;28;20054;-86
2023/03/13 06:26:36;;;;;;;2.67;0.50;;;14.60;60.20;;;;;;4976418;28;20379;-87
2023/03/13 06:29:04;;;;;;;4.63;1.88;;;14.50;60.10;;;;;;4980121;28;20054;-88
2023/03/13 06:31:32;;;;;;;6.28;2.70;;;14.60;60.10;;;;;;4985781;28;20046;-88
2023/03/13 06:33:59;;;;;;;1.80;1.70;;;14.60;60.20;;;;;;4980707;28;20046;-87
2023/03/13 06:36:26;;;;;;;2.65;1.75;;;14.60;60.30;;;;;;4977960;28;20050;-88
2023/03/13 06:38:55;;;;;;;0.80;0.80;;;14.70;60.30;;;;;;4981176;28;20525;-89
2023/03/13 06:41:23;;;;;;;0.77;0.77;;;14.70;60.10;;;;;;4984040;28;20054;-88
2023/03/13 06:43:50;;;;;;;1.08;0.80;;;14.70;60.00;;;;;;4977448;28;20050;-88
2023/03/13 06:46:19;;;;;;;1.30;0.82;;;14.70;60.10;;;;;;4979518;28;20413;-87
2023/03/13 06:48:47;;;;;;;0.70;0.70;;;14.80;60.10;;;;;;4981248;28;20054;-88
2023/03/13 06:51:15;;;;;;;1.65;0.50;;;14.80;60.00;;;;;;4978792;28;20054;-87
2023/03/13 06:53:42;;;;;;;1.58;0.70;;;14.80;59.80;;;;;;4974370;28;20050;-87
2023/03/13 06:56:11;;;;;;;0.60;0.60;;;14.80;59.80;;;;;;4972025;28;20494;-87
2023/03/13 06:58:38;;;;;;;1.25;1.10;;;14.80;59.70;;;;;;4976285;28;20058;-86
2023/03/13 07:01:10;;;;;;;2.03;0.80;;;14.90;59.70;;;;;;4978078;28;20058;-87
2023/03/13 07:03:38;;;;;;;0.90;0.68;;;14.90;59.60;;;;;;4978487;28;20175;-89
2023/03/13 07:06:06;;;;;;;5.28;2.45;;;14.90;59.50;;;;;;4976592;28;20061;-86
2023/03/13 07:08:34;;;;;;;3.08;1.63;;;15.00;59.60;;;;;;4979989;28;20422;-90
2023/03/13 07:11:03;;;;;;;1.85;1.20;;;15.00;59.60;;;;;;4977779;28;20484;-90
2023/03/13 07:13:32;;;;;;;2.17;0.93;;;15.00;59.50;;;;;;4974369;28;20384;-88
2023/03/13 07:16:00;;;;;;;2.10;0.90;;;15.00;59.40;;;;;;4979012;28;20061;-89
2023/03/13 07:18:27;;;;;;;3.35;1.20;;;15.10;59.70;;;;;;4975490;28;21352;-88
2023/03/13 07:20:56;;;;;;;1.65;1.02;;;15.10;59.60;;;;;;4977464;28;20704;-89
2023/03/13 07:23:24;;;;;;;2.05;1.13;;;15.10;59.60;;;;;;4974801;28;20109;-90
2023/03/13 07:25:55;;;;;;;3.20;1.00;;;15.10;59.50;;;;;;4976736;28;20145;-89
2023/03/13 07:28:22;;;;;;;2.42;0.90;;;15.10;59.40;;;;;;4974838;28;20058;-86
2023/03/13 07:30:51;;;;;;;3.28;1.00;;;15.10;59.40;;;;;;4980832;28;20061;-88
2023/03/13 07:33:18;;;;;;;1.42;0.95;;;15.20;59.30;;;;;;4978923;28;20050;-91
2023/03/13 07:35:49;;;;;;;2.33;1.08;;;15.20;59.10;;;;;;4979218;28;20162;-89
2023/03/13 07:38:17;;;;;;;2.78;1.42;;;15.30;59.20;;;;;;4977665;28;20065;-91
2023/03/13 07:40:50;;;;;;;4.15;1.77;;;15.20;59.00;;;;;;4976967;28;20065;-89
2023/03/13 07:43:18;;;;;;;2.83;1.33;;;15.30;58.90;;;;;;4982332;28;20213;-91
2023/03/13 07:45:54;;;;;;;3.90;1.30;;;15.30;58.70;;;;;;4985905;28;20046;-89
2023/03/13 07:48:23;;;;;;;3.05;1.33;;;15.20;58.50;;;;;;4971181;28;20065;-88
2023/03/13 07:50:50;;;;;;;4.90;1.92;;;15.30;58.60;;;;;;4984697;28;20061;-91
2023/03/13 07:53:20;;;;;;;4.35;1.60;;;15.30;58.50;;;;;;4978578;28;20061;-90
2023/03/13 07:55:55;;;;;;;3.63;1.45;;;15.30;58.40;;;;;;4983670;28;20058;-90
2023/03/13 07:58:24;;;;;;;2.20;1.35;;;15.30;58.10;;;;;;4973205;28;20054;-89
2023/03/13 08:00:53;;;;;;;7.63;1.65;;;15.40;58.10;;;;;;4981402;28;20053;-90
2023/03/13 08:03:20;;;;;;;8.88;1.60;;;15.40;58.10;;;;;;4975611;28;20061;-93
2023/03/13 08:05:48;;;;;;;3.63;1.60;;;15.40;58.10;;;;;;4968219;28;20057;-91
2023/03/13 08:08:16;;;;;;;4.57;1.60;;;15.40;57.90;;;;;;4975586;28;20081;-87
2023/03/13 08:10:43;;;;;;;5.55;1.63;;;15.50;58.00;;;;;;4973205;28;20520;-88
2023/03/13 08:13:11;;;;;;;5.43;1.65;;;15.50;57.80;;;;;;4972916;28;20517;-90
2023/03/13 08:15:38;;;;;;;4.40;1.50;;;15.50;57.80;;;;;;4979485;28;20062;-89
2023/03/13 08:18:07;;;;;;;6.28;1.60;;;15.60;57.70;;;;;;4978924;28;20054;-88
2023/03/13 08:20:34;;;;;;;3.90;1.50;;;15.60;57.50;;;;;;4974382;28;20062;-87
2023/03/13 08:23:01;;;;;;;3.70;1.50;;;15.60;57.50;;;;;;4973896;28;20054;-89
2023/03/13 08:25:29;;;;;;;5.60;1.42;;;15.70;57.40;;;;;;4977737;28;20073;-88
2023/03/13 08:27:56;;;;;;;3.38;1.20;;;15.70;57.20;;;;;;4983227;28;20410;-88
2023/03/13 08:30:24;;;;;;;3.38;1.50;;;15.70;56.90;;;;;;4977666;28;20423;-89
2023/03/13 08:32:51;;;;;;;4.97;1.67;;;15.70;56.90;;;;;;4982687;28;20740;-88
2023/03/13 08:35:20;;;;;;;6.07;1.80;;;15.70;56.70;;;;;;4974809;28;20057;-88
2023/03/13 08:37:47;;;;;;;4.85;1.73;;;15.80;56.70;;;;;;4977044;28;20691;-89
2023/03/13 08:40:14;;;;;;;5.72;2.75;;;15.80;56.50;;;;;;4984521;28;20459;-87
2023/03/13 08:42:42;;;;;;;5.28;1.63;;;15.80;56.50;;;;;;4977511;28;20359;-87
2023/03/13 08:45:10;;;;;;;4.55;1.83;;;15.80;56.50;;;;;;4979560;28;20513;-90
2023/03/13 08:47:37;;;;;;;6.82;1.75;;;15.80;56.50;;;;;;4978288;28;20050;-87
2023/03/13 08:50:05;;;;;;;5.28;1.45;;;15.80;56.50;;;;;;4984357;28;20387;-89
2023/03/13 08:52:35;;;;;;;2.75;1.63;;;15.80;56.40;;;;;;4977986;28;20066;-89
2023/03/13 08:55:02;;;;;;;7.80;2.00;;;15.80;56.30;;;;;;4979406;28;20074;-89
2023/03/13 08:57:29;;;;;;;4.65;1.80;;;15.90;56.30;;;;;;4975088;28;20062;-90
2023/03/13 08:59:56;;;;;;;8.95;1.88;;;15.90;56.20;;;;;;4978912;28;20176;-90
2023/03/13 09:02:24;;;;;;;7.53;2.65;;;15.90;56.20;;;;;;4984797;28;20050;-87
2023/03/13 09:04:51;;;;;;;5.43;1.70;;;15.90;56.20;;;;;;4978236;28;20081;-87
2023/03/13 09:07:18;;;;;;;7.88;2.10;;;15.90;56.20;;;;;;4970689;28;20265;-86
2023/03/13 09:09:47;;;;;;;3.05;1.60;;;15.90;56.20;;;;;;4970938;28;20054;-87
2023/03/13 09:12:14;;;;;;;5.05;1.50;;;15.90;56.10;;;;;;4970325;28;20061;-86
2023/03/13 09:14:41;;;;;;;14.95;4.88;;;15.90;56.10;;;;;;4971074;28;21186;-86
2023/03/13 09:17:09;;;;;;;11.63;5.90;;;15.90;56.10;;;;;;4972884;28;20506;-86
2023/03/13 09:19:36;;;;;;;4.97;3.38;;;15.90;56.20;;;;;;4980993;28;20054;-86
2023/03/13 09:22:04;;;;;;;8.18;4.68;;;15.90;56.20;;;;;;4978357;28;20356;-86
2023/03/13 09:24:31;;;;;;;5.35;2.88;;;15.90;56.30;;;;;;4974764;28;20054;-88
2023/03/13 09:26:59;;;;;;;2.60;2.00;;;16.00;56.70;;;;;;4979132;28;20486;-88
2023/03/13 09:29:27;;;;;;;3.58;2.28;;;16.00;56.20;;;;;;4970082;28;20054;-89
2023/03/13 09:31:54;;;;;;;6.53;1.92;;;16.00;56.20;;;;;;4969059;28;20062;-87
2023/03/13 09:34:24;;;;;;;7.72;1.98;;;16.00;56.40;;;;;;4969761;28;20065;-86
2023/03/13 09:36:51;;;;;;;4.43;1.70;;;16.00;56.40;;;;;;4969431;28;20058;-87
2023/03/13 09:39:18;;;;;;;3.42;1.60;;;16.00;56.50;;;;;;4971130;28;20418;-86
2023/03/13 09:41:55;;;;;;;2.05;1.67;;;16.10;56.50;;;;;;4972814;28;20054;-87
2023/03/13 09:44:28;;;;;;;4.18;2.60;;;16.10;56.50;;;;;;4979798;28;20482;-87
2023/03/13 09:47:01;;;;;;;4.63;1.88;;;16.10;56.60;;;;;;4987981;28;20058;-87
2023/03/13 09:49:34;;;;;;;17.75;2.33;;;16.10;56.80;;;;;;4981427;28;20054;-87
2023/03/13 09:52:11;;;;;;;6.93;3.83;;;16.10;56.90;;;;;;4970919;28;22411;-87
2023/03/13 09:54:43;;;;;;;10.23;4.43;;;16.10;57.00;;;;;;4973992;28;20504;-87
2023/03/13 09:57:18;;;;;;;4.20;1.80;;;16.10;57.30;;;;;;4967845;28;20080;-88
2023/03/13 09:59:52;;;;;;;5.57;1.60;;;16.20;57.40;;;;;;4971390;28;20054;-88
2023/03/13 10:02:24;;;;;;;;;;;16.10;57.50;;;;;;4972223;28;20050;-86
2023/03/13 10:04:57;;;;;;;3.10;1.70;;;16.20;57.50;;;;;;4970179;28;19933;-87
2023/03/13 10:07:25;;;;;;;4.70;2.72;;;16.20;57.50;;;;;;4967855;28;20065;-86
2023/03/13 10:09:52;;;;;;;3.10;1.90;;;16.20;57.60;;;;;;4969792;28;20057;-86
2023/03/13 10:12:22;;;;;;;5.50;3.47;;;16.20;57.80;;;;;;4967541;28;20065;-87
2023/03/13 10:15:03;;;;;;;5.90;2.75;;;16.20;57.90;;;;;;4974496;28;20073;-88
2023/03/13 10:17:33;;;;;;;5.03;2.50;;;16.20;58.10;;;;;;4973678;28;20518;-87
2023/03/13 10:20:09;;;;;;;5.78;1.60;;;16.20;58.30;;;;;;4966656;28;20054;-88
2023/03/13 10:22:37;;;;;;;7.95;3.15;;;16.20;58.30;;;;;;4969824;28;20530;-87
2023/03/13 10:25:09;;;;;;;12.95;6.10;;;16.20;58.30;;;;;;4971631;28;20530;-88
2023/03/13 10:27:48;;;;;;;3.92;2.70;;;16.30;58.30;;;;;;4971214;28;20058;-87
2023/03/13 10:30:23;;;;;;;7.50;4.65;;;16.30;58.20;;;;;;4980119;28;20058;-87
2023/03/13 10:32:53;;;;;;;9.18;4.60;;;16.30;58.20;;;;;;4978563;28;20509;-86
2023/03/13 10:35:23;;;;;;;3.95;2.40;;;16.30;58.20;;;;;;4973946;28;20046;-87
2023/03/13 10:37:59;;;;;;;6.97;2.90;;;16.30;58.10;;;;;;4975210;28;20054;-86
2023/03/13 10:40:28;;;;;;;3.05;1.70;;;16.30;58.00;;;;;;4976932;28;20057;-86
2023/03/13 10:43:01;;;;;;;2.15;1.40;;;16.30;57.90;;;;;;4984733;28;20062;-88
2023/03/13 10:45:34;;;;;;;2.95;1.20;;;16.30;58.00;;;;;;4978075;28;20057;-88
2023/03/13 10:48:04;;;;;;;4.93;1.17;;;16.30;58.10;;;;;;4976025;28;20061;-86
2023/03/13 10:50:34;;;;;;;1.98;1.50;;;16.40;58.30;;;;;;4976404;28;20410;-86
2023/03/13 10:53:21;;;;;;;6.38;1.23;;;16.40;58.20;;;;;;4976206;28;20050;-86
2023/03/13 10:55:49;;;;;;;4.70;0.93;;;16.50;58.20;;;;;;4976231;28;20042;-86
2023/03/13 10:58:21;;;;;;;2.15;1.02;;;16.50;58.10;;;;;;4973917;28;20058;-86
2023/03/13 11:00:49;;;;;;;1.88;1.02;;;16.50;58.00;;;;;;4976082;28;20065;-86
2023/03/13 11:03:20;;;;;;;2.75;0.95;;;16.50;57.90;;;;;;4977685;28;20053;-87
2023/03/13 11:05:56;;;;;;;4.47;1.02;;;16.50;57.80;;;;;;4978592;28;20873;-88
2023/03/13 11:08:26;;;;;;;1.58;1.00;;;16.60;57.80;;;;;;4976905;28;20080;-87
2023/03/13 11:10:56;;;;;;;4.47;0.85;;;16.60;57.80;;;;;;4978522;28;20524;-87
2023/03/13 11:13:39;;;;;;;2.22;1.10;;;16.60;57.80;;;;;;4977492;28;20065;-87
2023/03/13 11:16:22;;;;;;;9.45;1.80;;;16.60;57.70;;;;;;4977511;28;20065;-87
2023/03/13 11:19:09;;;;;;;1.85;1.13;;;16.60;57.70;;;;;;4987823;28;20518;-83
2023/03/13 11:21:44;;;;;;;2.35;1.40;;;16.60;57.80;;;;;;4982222;28;20061;-89
2023/03/13 11:24:20;;;;;;;4.55;1.50;;;16.60;57.80;;;;;;4982010;28;20062;-90
2023/03/13 11:26:56;;;;;;;8.25;3.33;;;16.60;57.60;;;;;;4976353;28;20513;-86
2023/03/13 11:29:31;;;;;;;3.33;2.03;;;16.70;58.10;;;;;;4980216;28;20050;-88
2023/03/13 11:32:05;;;;;;;4.35;1.60;;;16.70;57.70;;;;;;4981284;28;20944;-87
2023/03/13 11:34:39;;;;;;;2.17;1.02;;;16.70;57.80;;;;;;4984382;28;20049;-86
2023/03/13 11:37:13;;;;;;;2.35;1.00;;;16.70;57.80;;;;;;4979603;28;20054;-87
2023/03/13 11:40:00;;;;;;;4.22;1.02;;;16.80;58.00;;;;;;4976769;28;20061;-87
2023/03/13 11:42:48;;;;;;;3.08;1.73;;;16.80;58.00;;;;;;4976744;28;20055;-87
2023/03/13 11:45:33;;;;;;;2.65;2.13;;;16.90;57.90;;;;;;4981786;28;20429;-87
2023/03/13 11:48:06;;;;;;;2.60;0.95;;;16.90;57.90;;;;;;4981660;28;20504;-87
2023/03/13 11:50:39;;;;;;;1.88;0.82;;;17.00;57.90;;;;;;4981733;28;20057;-87
2023/03/13 11:53:33;;;;;;;3.65;1.85;;;17.00;57.90;;;;;;4981350;28;20418;-88
2023/03/13 11:56:08;;;;;;;2.78;0.98;;;17.10;57.70;;;;;;4979412;28;20586;-87
2023/03/13 11:58:56;;;;;;;3.17;1.55;;;17.20;57.50;;;;;;4982324;28;20058;-87
2023/03/13 12:01:27;;;;;;;2.13;1.70;;;17.20;57.00;;;;;;4982277;28;20054;-87
2023/03/13 12:04:03;;;;;;;2.60;1.10;;;17.30;56.90;;;;;;4981461;28;20529;-87
2023/03/13 12:06:33;;;;;;;1.42;0.80;;;17.30;56.60;;;;;;4980783;28;20058;-87
2023/03/13 12:09:10;;;;;;;0.77;0.63;;;17.40;56.50;;;;;;4981542;28;20411;-86
2023/03/13 12:11:42;;;;;;;1.60;0.75;;;17.40;56.10;;;;;;4979907;28;20049;-87
2023/03/13 12:14:15;;;;;;;0.50;0.50;;;17.40;56.10;;;;;;4981535;28;20520;-87
2023/03/13 12:16:45;;;;;;;1.25;0.70;;;17.40;55.70;;;;;;4981456;28;20054;-87
2023/03/13 12:19:21;;;;;;;2.40;0.80;;;17.40;55.40;;;;;;4979871;28;20490;-87
2023/03/13 12:21:52;;;;;;;1.33;0.55;;;17.40;55.40;;;;;;4984553;28;20065;-87
2023/03/13 12:24:25;;;;;;;1.40;0.60;;;17.40;55.40;;;;;;4980955;28;20066;-87
2023/03/13 12:26:56;;;;;;;0.85;0.70;;;17.40;55.40;;;;;;4979942;28;20054;-87
2023/03/13 12:29:34;;;;;;;1.85;0.47;;;17.40;55.20;;;;;;4978929;28;20050;-87
2023/03/13 12:32:09;;;;;;;0.80;0.60;;;17.40;55.50;;;;;;4981071;28;20919;-87
2023/03/13 12:34:46;;;;;;;0.82;0.63;;;17.40;55.30;;;;;;4979280;28;20073;-87
2023/03/13 12:37:23;;;;;;;4.50;0.52;;;17.40;55.20;;;;;;4980846;28;20080;-87
2023/03/13 12:39:57;;;;;;;1.60;0.90;;;17.40;55.20;;;;;;4976659;28;20054;-87
2023/03/13 12:42:40;;;;;;;1.23;0.85;;;17.40;55.20;;;;;;4979665;28;20050;-87
2023/03/13 12:45:11;;;;;;;0.63;0.50;;;17.40;55.20;;;;;;4981541;28;20406;-87
2023/03/13 12:48:05;;;;;;;3.03;0.60;;;17.40;55.10;;;;;;4981134;28;20612;-86
2023/03/13 12:50:47;;;;;;;2.50;0.70;;;17.40;55.10;;;;;;4976177;28;20529;-87
2023/03/13 12:53:35;;;;;;;0.80;0.70;;;17.40;55.10;;;;;;4981738;28;20085;-86
2023/03/13 12:56:28;;;;;;;1.80;0.88;;;17.40;55.20;;;;;;4981795;28;20051;-87
2023/03/13 12:58:59;;;;;;;1.33;0.85;;;17.40;55.30;;;;;;4971061;28;20050;-87
2023/03/13 13:01:31;;;;;;;2.47;0.80;;;17.40;55.10;;;;;;4985051;28;20050;-87